sensor_id;sensor_type;location;lat;lon;timestamp;P1;durP1;ratioP1;P2;durP2;ratioP2
7080;SDS011;3582;51.506;11.948;2024-02-04T00:01:44;7.50;;;6.57;;
7080;SDS011;3582;51.506;11.948;2024-02-04T00:04:10;6.77;;;6.00;;
7080;SDS011;3582;51.506;11.948;2024-02-04T00:06:36;10.50;;;6.30;;
7080;SDS011;3582;51.506;11.948;2024-02-04T00:09:02;7.10;;;6.37;;
7080;SDS011;3582;51.506;11.948;2024-02-04T00:11:29;8.75;;;6.22;;
7080;SDS011;3582;51.506;11.948;2024-02-04T00:13:55;9.53;;;6.90;;
7080;SDS011;3582;51.506;11.948;2024-02-04T00:16:21;9.20;;;7.22;;
7080;SDS011;3582;51.506;11.948;2024-02-04T00:18:47;8.47;;;7.60;;
7080;SDS011;3582;51.506;11.948;2024-02-04T00:21:13;11.10;;;7.57;;
7080;SDS011;3582;51.506;11.948;2024-02-04T00:23:39;10.70;;;7.90;;
7080;SDS011;3582;51.506;11.948;2024-02-04T00:26:05;11.70;;;8.03;;
7080;SDS011;3582;51.506;11.948;2024-02-04T00:28:31;9.90;;;8.13;;
7080;SDS011;3582;51.506;11.948;2024-02-04T00:30:57;9.23;;;8.10;;
7080;SDS011;3582;51.506;11.948;2024-02-04T00:33:24;11.45;;;8.93;;
7080;SDS011;3582;51.506;11.948;2024-02-04T00:35:50;9.20;;;7.50;;
7080;SDS011;3582;51.506;11.948;2024-02-04T00:38:16;12.30;;;8.90;;
7080;SDS011;3582;51.506;11.948;2024-02-04T00:40:41;10.30;;;7.50;;
7080;SDS011;3582;51.506;11.948;2024-02-04T00:43:07;11.17;;;7.87;;
7080;SDS011;3582;51.506;11.948;2024-02-04T00:45:33;8.87;;;7.60;;
7080;SDS011;3582;51.506;11.948;2024-02-04T00:47:59;8.60;;;7.10;;
7080;SDS011;3582;51.506;11.948;2024-02-04T00:50:25;9.03;;;7.00;;
7080;SDS011;3582;51.506;11.948;2024-02-04T00:52:51;10.30;;;6.57;;
7080;SDS011;3582;51.506;11.948;2024-02-04T00:55:20;8.57;;;6.30;;
7080;SDS011;3582;51.506;11.948;2024-02-04T00:57:46;9.50;;;6.20;;
7080;SDS011;3582;51.506;11.948;2024-02-04T01:00:12;10.83;;;8.13;;
7080;SDS011;3582;51.506;11.948;2024-02-04T01:02:38;8.77;;;6.38;;
7080;SDS011;3582;51.506;11.948;2024-02-04T01:05:04;8.20;;;6.20;;
7080;SDS011;3582;51.506;11.948;2024-02-04T01:07:30;7.97;;;6.13;;
7080;SDS011;3582;51.506;11.948;2024-02-04T01:09:56;9.90;;;6.80;;
7080;SDS011;3582;51.506;11.948;2024-02-04T01:12:22;7.93;;;7.20;;
7080;SDS011;3582;51.506;11.948;2024-02-04T01:14:48;7.10;;;6.40;;
7080;SDS011;3582;51.506;11.948;2024-02-04T01:17:14;10.50;;;7.00;;
7080;SDS011;3582;51.506;11.948;2024-02-04T01:19:40;10.03;;;7.20;;
7080;SDS011;3582;51.506;11.948;2024-02-04T01:22:06;11.30;;;8.63;;
7080;SDS011;3582;51.506;11.948;2024-02-04T01:24:32;9.83;;;7.07;;
7080;SDS011;3582;51.506;11.948;2024-02-04T01:26:58;10.03;;;7.23;;
7080;SDS011;3582;51.506;11.948;2024-02-04T01:29:24;9.43;;;7.50;;
7080;SDS011;3582;51.506;11.948;2024-02-04T01:31:50;10.82;;;7.15;;
7080;SDS011;3582;51.506;11.948;2024-02-04T01:34:16;12.97;;;8.07;;
7080;SDS011;3582;51.506;11.948;2024-02-04T01:36:42;9.82;;;7.63;;
7080;SDS011;3582;51.506;11.948;2024-02-04T01:39:08;9.87;;;8.00;;
7080;SDS011;3582;51.506;11.948;2024-02-04T01:41:35;9.50;;;7.55;;
7080;SDS011;3582;51.506;11.948;2024-02-04T01:44:01;10.47;;;7.70;;
7080;SDS011;3582;51.506;11.948;2024-02-04T01:46:27;11.77;;;8.48;;
7080;SDS011;3582;51.506;11.948;2024-02-04T01:48:53;10.07;;;7.20;;
7080;SDS011;3582;51.506;11.948;2024-02-04T01:51:19;9.35;;;7.50;;
7080;SDS011;3582;51.506;11.948;2024-02-04T01:53:46;10.85;;;8.30;;
7080;SDS011;3582;51.506;11.948;2024-02-04T01:56:13;11.15;;;8.10;;
7080;SDS011;3582;51.506;11.948;2024-02-04T01:58:39;8.73;;;7.82;;
7080;SDS011;3582;51.506;11.948;2024-02-04T02:01:05;10.27;;;6.85;;
7080;SDS011;3582;51.506;11.948;2024-02-04T02:03:31;13.65;;;9.50;;
7080;SDS011;3582;51.506;11.948;2024-02-04T02:05:57;9.65;;;7.93;;
7080;SDS011;3582;51.506;11.948;2024-02-04T02:08:24;10.57;;;7.85;;
7080;SDS011;3582;51.506;11.948;2024-02-04T02:10:51;13.27;;;8.50;;
7080;SDS011;3582;51.506;11.948;2024-02-04T02:13:22;13.85;;;9.57;;
7080;SDS011;3582;51.506;11.948;2024-02-04T02:15:51;13.52;;;8.77;;
7080;SDS011;3582;51.506;11.948;2024-02-04T02:18:23;12.43;;;8.85;;
7080;SDS011;3582;51.506;11.948;2024-02-04T02:20:55;11.23;;;8.63;;
7080;SDS011;3582;51.506;11.948;2024-02-04T02:23:30;9.95;;;7.85;;
7080;SDS011;3582;51.506;11.948;2024-02-04T02:25:56;16.55;;;10.05;;
7080;SDS011;3582;51.506;11.948;2024-02-04T02:28:23;12.50;;;9.45;;
7080;SDS011;3582;51.506;11.948;2024-02-04T02:30:49;12.10;;;8.47;;
7080;SDS011;3582;51.506;11.948;2024-02-04T02:33:15;11.73;;;10.17;;
7080;SDS011;3582;51.506;11.948;2024-02-04T02:35:41;14.10;;;9.07;;
7080;SDS011;3582;51.506;11.948;2024-02-04T02:38:20;15.32;;;10.80;;
7080;SDS011;3582;51.506;11.948;2024-02-04T02:40:50;11.88;;;9.13;;
7080;SDS011;3582;51.506;11.948;2024-02-04T02:43:17;15.98;;;10.07;;
7080;SDS011;3582;51.506;11.948;2024-02-04T02:45:43;15.07;;;11.07;;
7080;SDS011;3582;51.506;11.948;2024-02-04T02:48:10;13.13;;;9.55;;
7080;SDS011;3582;51.506;11.948;2024-02-04T02:50:37;14.45;;;8.48;;
7080;SDS011;3582;51.506;11.948;2024-02-04T02:53:04;13.52;;;8.95;;
7080;SDS011;3582;51.506;11.948;2024-02-04T02:55:30;12.60;;;8.95;;
7080;SDS011;3582;51.506;11.948;2024-02-04T02:57:56;15.73;;;11.57;;
7080;SDS011;3582;51.506;11.948;2024-02-04T03:00:21;14.60;;;9.87;;
7080;SDS011;3582;51.506;11.948;2024-02-04T03:02:48;17.55;;;9.27;;
7080;SDS011;3582;51.506;11.948;2024-02-04T03:05:16;13.05;;;9.25;;
7080;SDS011;3582;51.506;11.948;2024-02-04T03:07:42;10.43;;;8.20;;
7080;SDS011;3582;51.506;11.948;2024-02-04T03:10:08;11.10;;;8.60;;
7080;SDS011;3582;51.506;11.948;2024-02-04T03:12:34;10.73;;;7.95;;
7080;SDS011;3582;51.506;11.948;2024-02-04T03:15:00;13.53;;;9.00;;
7080;SDS011;3582;51.506;11.948;2024-02-04T03:17:26;9.70;;;8.50;;
7080;SDS011;3582;51.506;11.948;2024-02-04T03:19:52;10.88;;;8.38;;
7080;SDS011;3582;51.506;11.948;2024-02-04T03:22:19;10.52;;;7.80;;
7080;SDS011;3582;51.506;11.948;2024-02-04T03:24:46;11.57;;;8.43;;
7080;SDS011;3582;51.506;11.948;2024-02-04T03:27:12;9.30;;;7.68;;
7080;SDS011;3582;51.506;11.948;2024-02-04T03:29:38;12.73;;;7.70;;
7080;SDS011;3582;51.506;11.948;2024-02-04T03:32:04;9.45;;;7.68;;
7080;SDS011;3582;51.506;11.948;2024-02-04T03:34:30;15.68;;;8.23;;
7080;SDS011;3582;51.506;11.948;2024-02-04T03:36:56;7.67;;;6.47;;
7080;SDS011;3582;51.506;11.948;2024-02-04T03:39:22;13.17;;;7.90;;
7080;SDS011;3582;51.506;11.948;2024-02-04T03:41:48;10.17;;;7.57;;
7080;SDS011;3582;51.506;11.948;2024-02-04T03:44:14;7.90;;;6.87;;
7080;SDS011;3582;51.506;11.948;2024-02-04T03:46:40;11.93;;;8.07;;
7080;SDS011;3582;51.506;11.948;2024-02-04T03:49:07;9.95;;;7.35;;
7080;SDS011;3582;51.506;11.948;2024-02-04T03:51:33;10.13;;;6.53;;
7080;SDS011;3582;51.506;11.948;2024-02-04T03:53:59;9.27;;;6.97;;
7080;SDS011;3582;51.506;11.948;2024-02-04T03:56:25;13.80;;;7.00;;
7080;SDS011;3582;51.506;11.948;2024-02-04T03:58:50;8.57;;;6.80;;
7080;SDS011;3582;51.506;11.948;2024-02-04T04:01:16;11.03;;;7.90;;
7080;SDS011;3582;51.506;11.948;2024-02-04T04:03:43;9.20;;;7.13;;
7080;SDS011;3582;51.506;11.948;2024-02-04T04:06:09;10.85;;;7.32;;
7080;SDS011;3582;51.506;11.948;2024-02-04T04:08:36;8.95;;;7.25;;
7080;SDS011;3582;51.506;11.948;2024-02-04T04:11:02;11.30;;;6.53;;
7080;SDS011;3582;51.506;11.948;2024-02-04T04:13:28;9.88;;;7.95;;
7080;SDS011;3582;51.506;11.948;2024-02-04T04:15:54;11.20;;;7.60;;
7080;SDS011;3582;51.506;11.948;2024-02-04T04:18:20;11.23;;;7.67;;
7080;SDS011;3582;51.506;11.948;2024-02-04T04:20:46;8.07;;;5.80;;
7080;SDS011;3582;51.506;11.948;2024-02-04T04:23:12;8.97;;;7.23;;
7080;SDS011;3582;51.506;11.948;2024-02-04T04:25:38;9.73;;;7.40;;
7080;SDS011;3582;51.506;11.948;2024-02-04T04:28:04;14.47;;;9.57;;
7080;SDS011;3582;51.506;11.948;2024-02-04T04:30:30;13.30;;;7.13;;
7080;SDS011;3582;51.506;11.948;2024-02-04T04:32:56;12.73;;;6.90;;
7080;SDS011;3582;51.506;11.948;2024-02-04T04:35:23;9.85;;;6.07;;
7080;SDS011;3582;51.506;11.948;2024-02-04T04:37:49;7.15;;;6.38;;
7080;SDS011;3582;51.506;11.948;2024-02-04T04:40:16;10.40;;;6.75;;
7080;SDS011;3582;51.506;11.948;2024-02-04T04:42:41;9.60;;;6.87;;
7080;SDS011;3582;51.506;11.948;2024-02-04T04:45:07;8.17;;;6.23;;
7080;SDS011;3582;51.506;11.948;2024-02-04T04:47:34;10.65;;;6.72;;
7080;SDS011;3582;51.506;11.948;2024-02-04T04:50:00;9.10;;;7.10;;
7080;SDS011;3582;51.506;11.948;2024-02-04T04:52:26;9.47;;;6.93;;
7080;SDS011;3582;51.506;11.948;2024-02-04T04:54:52;8.60;;;6.70;;
7080;SDS011;3582;51.506;11.948;2024-02-04T05:03:25;9.18;;;6.78;;
7080;SDS011;3582;51.506;11.948;2024-02-04T05:05:51;10.30;;;6.97;;
7080;SDS011;3582;51.506;11.948;2024-02-04T05:08:17;10.27;;;7.50;;
7080;SDS011;3582;51.506;11.948;2024-02-04T05:10:43;10.90;;;7.00;;
7080;SDS011;3582;51.506;11.948;2024-02-04T05:13:09;8.20;;;6.73;;
7080;SDS011;3582;51.506;11.948;2024-02-04T05:15:35;9.97;;;7.20;;
7080;SDS011;3582;51.506;11.948;2024-02-04T05:18:01;9.30;;;6.60;;
7080;SDS011;3582;51.506;11.948;2024-02-04T05:20:27;13.10;;;6.97;;
7080;SDS011;3582;51.506;11.948;2024-02-04T05:22:53;8.50;;;6.47;;
7080;SDS011;3582;51.506;11.948;2024-02-04T05:25:20;8.50;;;6.95;;
7080;SDS011;3582;51.506;11.948;2024-02-04T05:27:46;12.53;;;7.37;;
7080;SDS011;3582;51.506;11.948;2024-02-04T05:30:12;9.20;;;7.53;;
7080;SDS011;3582;51.506;11.948;2024-02-04T05:32:38;12.23;;;6.60;;
7080;SDS011;3582;51.506;11.948;2024-02-04T05:35:04;11.97;;;7.77;;
7080;SDS011;3582;51.506;11.948;2024-02-04T05:37:30;14.52;;;7.25;;
7080;SDS011;3582;51.506;11.948;2024-02-04T05:39:56;11.30;;;7.43;;
7080;SDS011;3582;51.506;11.948;2024-02-04T05:42:22;15.07;;;9.07;;
7080;SDS011;3582;51.506;11.948;2024-02-04T05:44:48;8.40;;;7.00;;
7080;SDS011;3582;51.506;11.948;2024-02-04T05:47:14;10.57;;;7.18;;
7080;SDS011;3582;51.506;11.948;2024-02-04T05:49:40;10.60;;;7.50;;
7080;SDS011;3582;51.506;11.948;2024-02-04T05:52:06;8.70;;;6.70;;
7080;SDS011;3582;51.506;11.948;2024-02-04T05:54:32;9.73;;;7.07;;
7080;SDS011;3582;51.506;11.948;2024-02-04T05:57:02;11.60;;;8.00;;
7080;SDS011;3582;51.506;11.948;2024-02-04T05:59:28;11.38;;;7.45;;
7080;SDS011;3582;51.506;11.948;2024-02-04T06:01:54;8.30;;;6.50;;
7080;SDS011;3582;51.506;11.948;2024-02-04T06:04:20;8.50;;;7.00;;
7080;SDS011;3582;51.506;11.948;2024-02-04T06:06:46;8.52;;;6.22;;
7080;SDS011;3582;51.506;11.948;2024-02-04T06:09:12;11.83;;;6.97;;
7080;SDS011;3582;51.506;11.948;2024-02-04T06:11:38;14.65;;;7.35;;
7080;SDS011;3582;51.506;11.948;2024-02-04T06:14:04;9.80;;;7.23;;
7080;SDS011;3582;51.506;11.948;2024-02-04T06:16:30;10.30;;;6.20;;
7080;SDS011;3582;51.506;11.948;2024-02-04T06:18:59;9.43;;;6.68;;
7080;SDS011;3582;51.506;11.948;2024-02-04T06:21:25;9.43;;;6.50;;
7080;SDS011;3582;51.506;11.948;2024-02-04T06:23:51;7.77;;;5.70;;
7080;SDS011;3582;51.506;11.948;2024-02-04T06:26:17;7.80;;;5.50;;
7080;SDS011;3582;51.506;11.948;2024-02-04T06:28:42;8.80;;;5.17;;
7080;SDS011;3582;51.506;11.948;2024-02-04T06:31:11;6.45;;;5.72;;
7080;SDS011;3582;51.506;11.948;2024-02-04T06:33:37;4.50;;;4.10;;
7080;SDS011;3582;51.506;11.948;2024-02-04T06:36:03;7.33;;;4.97;;
7080;SDS011;3582;51.506;11.948;2024-02-04T06:38:29;5.83;;;4.70;;
7080;SDS011;3582;51.506;11.948;2024-02-04T06:40:55;6.03;;;4.33;;
7080;SDS011;3582;51.506;11.948;2024-02-04T06:43:20;5.27;;;4.50;;
7080;SDS011;3582;51.506;11.948;2024-02-04T06:45:46;5.37;;;4.47;;
7080;SDS011;3582;51.506;11.948;2024-02-04T06:48:12;4.50;;;3.93;;
7080;SDS011;3582;51.506;11.948;2024-02-04T06:50:38;4.80;;;4.37;;
7080;SDS011;3582;51.506;11.948;2024-02-04T06:53:04;4.87;;;4.33;;
7080;SDS011;3582;51.506;11.948;2024-02-04T06:55:30;5.00;;;4.50;;
7080;SDS011;3582;51.506;11.948;2024-02-04T06:57:56;4.30;;;3.90;;
7080;SDS011;3582;51.506;11.948;2024-02-04T07:00:22;4.60;;;4.20;;
7080;SDS011;3582;51.506;11.948;2024-02-04T07:02:48;5.73;;;3.07;;
7080;SDS011;3582;51.506;11.948;2024-02-04T07:05:16;3.35;;;3.00;;
7080;SDS011;3582;51.506;11.948;2024-02-04T07:07:42;2.95;;;2.75;;
7080;SDS011;3582;51.506;11.948;2024-02-04T07:10:08;2.77;;;2.53;;
7080;SDS011;3582;51.506;11.948;2024-02-04T07:12:34;1.83;;;1.73;;
7080;SDS011;3582;51.506;11.948;2024-02-04T07:15:00;3.20;;;3.00;;
7080;SDS011;3582;51.506;11.948;2024-02-04T07:17:26;3.87;;;3.57;;
7080;SDS011;3582;51.506;11.948;2024-02-04T07:19:52;5.73;;;3.17;;
7080;SDS011;3582;51.506;11.948;2024-02-04T07:22:18;7.35;;;2.65;;
7080;SDS011;3582;51.506;11.948;2024-02-04T07:24:44;3.80;;;2.90;;
7080;SDS011;3582;51.506;11.948;2024-02-04T07:27:09;3.20;;;2.93;;
7080;SDS011;3582;51.506;11.948;2024-02-04T07:29:35;3.97;;;3.67;;
7080;SDS011;3582;51.506;11.948;2024-02-04T07:32:01;3.47;;;3.17;;
7080;SDS011;3582;51.506;11.948;2024-02-04T07:34:27;3.20;;;2.90;;
7080;SDS011;3582;51.506;11.948;2024-02-04T07:36:53;4.67;;;4.27;;
7080;SDS011;3582;51.506;11.948;2024-02-04T07:39:19;5.70;;;3.70;;
7080;SDS011;3582;51.506;11.948;2024-02-04T07:41:45;5.00;;;4.20;;
7080;SDS011;3582;51.506;11.948;2024-02-04T07:44:11;4.27;;;3.53;;
7080;SDS011;3582;51.506;11.948;2024-02-04T07:46:37;4.15;;;3.75;;
7080;SDS011;3582;51.506;11.948;2024-02-04T07:49:03;4.40;;;4.00;;
7080;SDS011;3582;51.506;11.948;2024-02-04T07:51:29;4.13;;;3.73;;
7080;SDS011;3582;51.506;11.948;2024-02-04T07:53:55;6.00;;;4.60;;
7080;SDS011;3582;51.506;11.948;2024-02-04T07:56:21;7.30;;;4.93;;
7080;SDS011;3582;51.506;11.948;2024-02-04T07:58:47;5.30;;;4.57;;
7080;SDS011;3582;51.506;11.948;2024-02-04T08:01:13;6.67;;;4.47;;
7080;SDS011;3582;51.506;11.948;2024-02-04T08:03:39;4.23;;;3.80;;
7080;SDS011;3582;51.506;11.948;2024-02-04T08:06:05;4.93;;;3.97;;
7080;SDS011;3582;51.506;11.948;2024-02-04T08:08:31;3.30;;;2.73;;
7080;SDS011;3582;51.506;11.948;2024-02-04T08:10:57;2.22;;;2.05;;
7080;SDS011;3582;51.506;11.948;2024-02-04T08:13:23;2.53;;;2.33;;
7080;SDS011;3582;51.506;11.948;2024-02-04T08:15:49;2.53;;;2.33;;
7080;SDS011;3582;51.506;11.948;2024-02-04T08:18:15;5.80;;;2.10;;
7080;SDS011;3582;51.506;11.948;2024-02-04T08:20:41;1.80;;;1.70;;
7080;SDS011;3582;51.506;11.948;2024-02-04T08:23:07;2.30;;;1.20;;
7080;SDS011;3582;51.506;11.948;2024-02-04T08:25:33;1.90;;;1.80;;
7080;SDS011;3582;51.506;11.948;2024-02-04T08:27:59;3.60;;;2.00;;
7080;SDS011;3582;51.506;11.948;2024-02-04T08:30:25;2.80;;;2.00;;
7080;SDS011;3582;51.506;11.948;2024-02-04T08:32:51;3.17;;;2.25;;
7080;SDS011;3582;51.506;11.948;2024-02-04T08:35:17;2.00;;;1.90;;
7080;SDS011;3582;51.506;11.948;2024-02-04T08:37:43;1.87;;;1.77;;
7080;SDS011;3582;51.506;11.948;2024-02-04T08:40:09;3.47;;;1.80;;
7080;SDS011;3582;51.506;11.948;2024-02-04T08:42:35;2.83;;;2.45;;
7080;SDS011;3582;51.506;11.948;2024-02-04T08:45:01;2.08;;;1.88;;
7080;SDS011;3582;51.506;11.948;2024-02-04T08:47:27;2.00;;;1.77;;
7080;SDS011;3582;51.506;11.948;2024-02-04T08:49:53;2.60;;;2.40;;
7080;SDS011;3582;51.506;11.948;2024-02-04T08:52:20;2.67;;;1.92;;
7080;SDS011;3582;51.506;11.948;2024-02-04T08:54:46;2.25;;;2.05;;
7080;SDS011;3582;51.506;11.948;2024-02-04T08:57:12;2.70;;;2.50;;
7080;SDS011;3582;51.506;11.948;2024-02-04T08:59:38;2.53;;;2.40;;
7080;SDS011;3582;51.506;11.948;2024-02-04T09:02:04;6.13;;;2.47;;
7080;SDS011;3582;51.506;11.948;2024-02-04T09:04:30;2.13;;;1.92;;
7080;SDS011;3582;51.506;11.948;2024-02-04T09:06:56;2.80;;;2.50;;
7080;SDS011;3582;51.506;11.948;2024-02-04T09:09:22;2.73;;;2.40;;
7080;SDS011;3582;51.506;11.948;2024-02-04T09:11:48;2.97;;;2.30;;
7080;SDS011;3582;51.506;11.948;2024-02-04T09:14:14;2.93;;;2.57;;
7080;SDS011;3582;51.506;11.948;2024-02-04T09:16:40;4.27;;;2.77;;
7080;SDS011;3582;51.506;11.948;2024-02-04T09:19:05;7.93;;;2.77;;
7080;SDS011;3582;51.506;11.948;2024-02-04T09:21:31;2.47;;;2.27;;
7080;SDS011;3582;51.506;11.948;2024-02-04T09:23:57;2.80;;;2.60;;
7080;SDS011;3582;51.506;11.948;2024-02-04T09:26:23;2.83;;;2.60;;
7080;SDS011;3582;51.506;11.948;2024-02-04T09:28:49;4.00;;;2.60;;
7080;SDS011;3582;51.506;11.948;2024-02-04T09:31:15;3.30;;;2.40;;
7080;SDS011;3582;51.506;11.948;2024-02-04T09:33:41;3.15;;;2.88;;
7080;SDS011;3582;51.506;11.948;2024-02-04T09:36:08;2.60;;;2.40;;
7080;SDS011;3582;51.506;11.948;2024-02-04T09:38:34;2.80;;;2.43;;
7080;SDS011;3582;51.506;11.948;2024-02-04T09:41:00;4.40;;;2.70;;
7080;SDS011;3582;51.506;11.948;2024-02-04T09:43:29;2.40;;;2.20;;
7080;SDS011;3582;51.506;11.948;2024-02-04T09:45:55;12.80;;;9.75;;
7080;SDS011;3582;51.506;11.948;2024-02-04T09:48:21;3.53;;;2.40;;
7080;SDS011;3582;51.506;11.948;2024-02-04T09:50:50;4.20;;;3.00;;
7080;SDS011;3582;51.506;11.948;2024-02-04T09:53:18;2.70;;;2.50;;
7080;SDS011;3582;51.506;11.948;2024-02-04T09:55:47;2.40;;;2.20;;
7080;SDS011;3582;51.506;11.948;2024-02-04T09:58:15;3.15;;;2.85;;
7080;SDS011;3582;51.506;11.948;2024-02-04T10:00:41;3.97;;;2.80;;
7080;SDS011;3582;51.506;11.948;2024-02-04T10:03:09;2.60;;;2.40;;
7080;SDS011;3582;51.506;11.948;2024-02-04T10:05:35;3.07;;;2.87;;
7080;SDS011;3582;51.506;11.948;2024-02-04T10:08:01;6.90;;;2.67;;
7080;SDS011;3582;51.506;11.948;2024-02-04T10:10:27;3.30;;;2.40;;
7080;SDS011;3582;51.506;11.948;2024-02-04T10:12:55;2.75;;;2.55;;
7080;SDS011;3582;51.506;11.948;2024-02-04T10:15:21;4.37;;;2.77;;
7080;SDS011;3582;51.506;11.948;2024-02-04T10:17:47;2.87;;;2.57;;
7080;SDS011;3582;51.506;11.948;2024-02-04T10:20:13;3.80;;;2.97;;
7080;SDS011;3582;51.506;11.948;2024-02-04T10:22:39;3.22;;;2.92;;
7080;SDS011;3582;51.506;11.948;2024-02-04T10:25:05;4.33;;;3.17;;
7080;SDS011;3582;51.506;11.948;2024-02-04T10:27:32;2.90;;;2.70;;
7080;SDS011;3582;51.506;11.948;2024-02-04T10:29:58;3.97;;;3.67;;
7080;SDS011;3582;51.506;11.948;2024-02-04T10:32:24;4.90;;;3.50;;
7080;SDS011;3582;51.506;11.948;2024-02-04T10:34:50;5.03;;;3.40;;
7080;SDS011;3582;51.506;11.948;2024-02-04T10:37:16;5.00;;;3.93;;
7080;SDS011;3582;51.506;11.948;2024-02-04T10:39:41;4.33;;;3.90;;
7080;SDS011;3582;51.506;11.948;2024-02-04T10:42:07;5.20;;;3.83;;
7080;SDS011;3582;51.506;11.948;2024-02-04T10:44:35;3.88;;;3.58;;
7080;SDS011;3582;51.506;11.948;2024-02-04T10:47:05;3.38;;;3.08;;
7080;SDS011;3582;51.506;11.948;2024-02-04T10:49:32;3.90;;;3.45;;
7080;SDS011;3582;51.506;11.948;2024-02-04T10:52:01;4.45;;;3.30;;
7080;SDS011;3582;51.506;11.948;2024-02-04T10:54:30;4.30;;;3.80;;
7080;SDS011;3582;51.506;11.948;2024-02-04T10:56:58;4.95;;;4.45;;
7080;SDS011;3582;51.506;11.948;2024-02-04T10:59:27;4.43;;;4.03;;
7080;SDS011;3582;51.506;11.948;2024-02-04T11:01:54;5.18;;;4.68;;
7080;SDS011;3582;51.506;11.948;2024-02-04T11:04:21;4.82;;;4.35;;
7080;SDS011;3582;51.506;11.948;2024-02-04T11:06:47;10.02;;;4.95;;
7080;SDS011;3582;51.506;11.948;2024-02-04T11:09:14;4.85;;;3.90;;
7080;SDS011;3582;51.506;11.948;2024-02-04T11:11:41;7.57;;;5.97;;
7080;SDS011;3582;51.506;11.948;2024-02-04T11:14:14;6.90;;;4.35;;
7080;SDS011;3582;51.506;11.948;2024-02-04T11:19:20;7.30;;;4.40;;
7080;SDS011;3582;51.506;11.948;2024-02-04T11:22:01;4.53;;;4.13;;
7080;SDS011;3582;51.506;11.948;2024-02-04T11:24:43;6.00;;;4.93;;
7080;SDS011;3582;51.506;11.948;2024-02-04T11:27:11;5.40;;;4.80;;
7080;SDS011;3582;51.506;11.948;2024-02-04T11:29:38;6.82;;;5.78;;
7080;SDS011;3582;51.506;11.948;2024-02-04T11:32:05;4.07;;;3.75;;
7080;SDS011;3582;51.506;11.948;2024-02-04T11:34:31;5.25;;;4.82;;
7080;SDS011;3582;51.506;11.948;2024-02-04T11:36:57;4.50;;;4.10;;
7080;SDS011;3582;51.506;11.948;2024-02-04T11:39:23;8.77;;;4.43;;
7080;SDS011;3582;51.506;11.948;2024-02-04T11:41:50;4.00;;;3.60;;
7080;SDS011;3582;51.506;11.948;2024-02-04T11:44:22;9.53;;;4.93;;
7080;SDS011;3582;51.506;11.948;2024-02-04T11:46:49;4.95;;;4.30;;
7080;SDS011;3582;51.506;11.948;2024-02-04T11:49:15;5.80;;;4.00;;
7080;SDS011;3582;51.506;11.948;2024-02-04T11:51:47;6.07;;;5.47;;
7080;SDS011;3582;51.506;11.948;2024-02-04T11:54:16;4.33;;;3.93;;
7080;SDS011;3582;51.506;11.948;2024-02-04T11:56:44;5.13;;;4.63;;
7080;SDS011;3582;51.506;11.948;2024-02-04T11:59:11;4.00;;;3.70;;
7080;SDS011;3582;51.506;11.948;2024-02-04T12:01:39;4.27;;;3.60;;
7080;SDS011;3582;51.506;11.948;2024-02-04T12:04:08;9.83;;;4.33;;
7080;SDS011;3582;51.506;11.948;2024-02-04T12:06:34;3.97;;;3.63;;
7080;SDS011;3582;51.506;11.948;2024-02-04T12:09:01;4.90;;;4.50;;
7080;SDS011;3582;51.506;11.948;2024-02-04T12:11:29;3.97;;;3.58;;
7080;SDS011;3582;51.506;11.948;2024-02-04T12:13:55;4.65;;;4.13;;
7080;SDS011;3582;51.506;11.948;2024-02-04T12:16:21;4.80;;;4.37;;
7080;SDS011;3582;51.506;11.948;2024-02-04T12:18:50;4.40;;;4.00;;
7080;SDS011;3582;51.506;11.948;2024-02-04T12:21:16;4.70;;;3.80;;
7080;SDS011;3582;51.506;11.948;2024-02-04T12:23:42;5.33;;;2.60;;
7080;SDS011;3582;51.506;11.948;2024-02-04T12:26:08;3.20;;;2.80;;
7080;SDS011;3582;51.506;11.948;2024-02-04T12:28:34;2.60;;;1.93;;
7080;SDS011;3582;51.506;11.948;2024-02-04T12:31:00;2.47;;;1.90;;
7080;SDS011;3582;51.506;11.948;2024-02-04T12:33:26;1.53;;;1.40;;
7080;SDS011;3582;51.506;11.948;2024-02-04T12:35:52;1.70;;;1.60;;
7080;SDS011;3582;51.506;11.948;2024-02-04T12:38:21;2.50;;;1.67;;
7080;SDS011;3582;51.506;11.948;2024-02-04T12:40:47;1.80;;;1.70;;
7080;SDS011;3582;51.506;11.948;2024-02-04T12:43:13;2.23;;;2.00;;
7080;SDS011;3582;51.506;11.948;2024-02-04T12:45:39;1.17;;;1.07;;
7080;SDS011;3582;51.506;11.948;2024-02-04T12:48:05;1.85;;;1.70;;
7080;SDS011;3582;51.506;11.948;2024-02-04T12:50:32;2.60;;;1.57;;
7080;SDS011;3582;51.506;11.948;2024-02-04T12:53:02;3.40;;;1.70;;
7080;SDS011;3582;51.506;11.948;2024-02-04T12:55:29;2.55;;;1.80;;
7080;SDS011;3582;51.506;11.948;2024-02-04T12:58:08;2.28;;;1.80;;
7080;SDS011;3582;51.506;11.948;2024-02-04T13:00:37;1.98;;;1.55;;
7080;SDS011;3582;51.506;11.948;2024-02-04T13:03:04;3.28;;;1.83;;
7080;SDS011;3582;51.506;11.948;2024-02-04T13:05:31;1.65;;;1.55;;
7080;SDS011;3582;51.506;11.948;2024-02-04T13:07:57;2.28;;;1.40;;
7080;SDS011;3582;51.506;11.948;2024-02-04T13:10:27;1.90;;;1.80;;
7080;SDS011;3582;51.506;11.948;2024-02-04T13:15:25;1.53;;;1.43;;
7080;SDS011;3582;51.506;11.948;2024-02-04T13:17:51;2.50;;;2.00;;
7080;SDS011;3582;51.506;11.948;2024-02-04T13:20:17;3.33;;;2.10;;
7080;SDS011;3582;51.506;11.948;2024-02-04T13:22:43;2.70;;;1.80;;
7080;SDS011;3582;51.506;11.948;2024-02-04T13:25:09;1.73;;;1.57;;
7080;SDS011;3582;51.506;11.948;2024-02-04T13:27:35;1.20;;;0.90;;
7080;SDS011;3582;51.506;11.948;2024-02-04T13:30:01;1.85;;;1.73;;
7080;SDS011;3582;51.506;11.948;2024-02-04T13:32:29;4.30;;;1.30;;
7080;SDS011;3582;51.506;11.948;2024-02-04T13:34:55;1.13;;;1.03;;
7080;SDS011;3582;51.506;11.948;2024-02-04T13:37:21;2.40;;;1.73;;
7080;SDS011;3582;51.506;11.948;2024-02-04T13:39:47;1.50;;;1.40;;
7080;SDS011;3582;51.506;11.948;2024-02-04T13:42:13;1.73;;;1.63;;
7080;SDS011;3582;51.506;11.948;2024-02-04T13:44:39;3.23;;;1.40;;
7080;SDS011;3582;51.506;11.948;2024-02-04T13:47:05;2.73;;;1.30;;
7080;SDS011;3582;51.506;11.948;2024-02-04T13:49:32;2.30;;;1.55;;
7080;SDS011;3582;51.506;11.948;2024-02-04T13:51:58;1.73;;;0.97;;
7080;SDS011;3582;51.506;11.948;2024-02-04T13:54:23;1.73;;;1.40;;
7080;SDS011;3582;51.506;11.948;2024-02-04T13:56:49;1.63;;;1.30;;
7080;SDS011;3582;51.506;11.948;2024-02-04T13:59:15;1.27;;;1.17;;
7080;SDS011;3582;51.506;11.948;2024-02-04T14:01:41;1.30;;;1.20;;
7080;SDS011;3582;51.506;11.948;2024-02-04T14:04:08;3.60;;;1.50;;
7080;SDS011;3582;51.506;11.948;2024-02-04T14:06:35;1.60;;;1.30;;
7080;SDS011;3582;51.506;11.948;2024-02-04T14:09:00;1.02;;;1.02;;
7080;SDS011;3582;51.506;11.948;2024-02-04T14:11:27;2.70;;;1.60;;
7080;SDS011;3582;51.506;11.948;2024-02-04T14:13:53;1.90;;;1.80;;
7080;SDS011;3582;51.506;11.948;2024-02-04T14:16:19;1.77;;;1.33;;
7080;SDS011;3582;51.506;11.948;2024-02-04T14:18:45;2.93;;;1.17;;
7080;SDS011;3582;51.506;11.948;2024-02-04T14:21:11;0.93;;;0.93;;
7080;SDS011;3582;51.506;11.948;2024-02-04T14:23:39;1.30;;;1.20;;
7080;SDS011;3582;51.506;11.948;2024-02-04T14:26:05;1.50;;;1.40;;
7080;SDS011;3582;51.506;11.948;2024-02-04T14:28:33;1.73;;;1.63;;
7080;SDS011;3582;51.506;11.948;2024-02-04T14:31:06;2.33;;;1.52;;
7080;SDS011;3582;51.506;11.948;2024-02-04T14:33:31;1.50;;;1.20;;
7080;SDS011;3582;51.506;11.948;2024-02-04T14:35:57;1.53;;;1.20;;
7080;SDS011;3582;51.506;11.948;2024-02-04T14:38:25;2.30;;;1.50;;
7080;SDS011;3582;51.506;11.948;2024-02-04T14:40:51;2.73;;;1.60;;
7080;SDS011;3582;51.506;11.948;2024-02-04T14:43:17;2.00;;;1.30;;
7080;SDS011;3582;51.506;11.948;2024-02-04T14:45:43;6.10;;;1.70;;
7080;SDS011;3582;51.506;11.948;2024-02-04T14:48:09;2.05;;;1.90;;
7080;SDS011;3582;51.506;11.948;2024-02-04T14:50:35;1.93;;;1.40;;
7080;SDS011;3582;51.506;11.948;2024-02-04T14:53:01;2.23;;;1.30;;
7080;SDS011;3582;51.506;11.948;2024-02-04T14:55:27;3.70;;;1.67;;
7080;SDS011;3582;51.506;11.948;2024-02-04T14:57:53;2.47;;;1.52;;
7080;SDS011;3582;51.506;11.948;2024-02-04T15:00:19;4.70;;;1.63;;
7080;SDS011;3582;51.506;11.948;2024-02-04T15:02:49;1.50;;;1.30;;
7080;SDS011;3582;51.506;11.948;2024-02-04T15:05:15;2.60;;;2.23;;